Time;durP1;ratioP1;P1;durP2;ratioP2;P2;SDS_P1;SDS_P2;PMS_P1;PMS_P2;Temp;Humidity;BMP_temperature;BMP_pressure;BME280_temperature;BME280_humidity;BME280_pressure;Samples;Min_cycle;Max_cycle;Signal;HPM_P1;HPM_P2
2024/04/16 00:02:28;;;;;;;6.00;1.00;;;;;5.40;100018.00;;;;10535704;27;20699;-79
2024/04/16 00:07:29;;;;;;;4.33;1.20;;;;;5.30;100013.00;;;;10536952;27;20301;-79
2024/04/16 00:12:31;;;;;;;6.10;1.60;;;;;5.20;100011.00;;;;10519775;27;20269;-80
2024/04/16 00:17:48;;;;;;;8.57;1.60;;;;;5.00;100006.00;;;;10561442;27;20260;-79
2024/04/16 00:22:50;;;;;;;4.43;1.40;;;;;5.10;100001.00;;;;10548606;27;20269;-80
2024/04/16 00:27:51;;;;;;;5.67;1.33;;;;;5.10;99998.00;;;;10531968;27;20377;-78
2024/04/16 00:32:53;;;;;;;5.57;0.93;;;;;5.10;99986.00;;;;10522752;27;21133;-78
2024/04/16 00:37:55;;;;;;;10.43;1.83;;;;;5.10;99971.00;;;;10482988;27;20261;-80
2024/04/16 00:42:56;;;;;;;4.73;1.27;;;;;5.10;99965.00;;;;10533395;27;21394;-79
2024/04/16 00:47:58;;;;;;;4.70;2.23;;;;;5.30;99956.00;;;;10530953;27;20323;-79
2024/04/16 00:53:00;;;;;;;7.93;1.53;;;;;5.50;99952.00;;;;10478319;27;20335;-78
2024/04/16 00:58:03;;;;;;;6.63;1.70;;;;;5.70;99941.00;;;;10549258;27;20258;-79
2024/04/16 01:03:05;;;;;;;4.90;1.77;;;;;5.70;99926.00;;;;10512831;27;20262;-82
2024/04/16 01:08:11;;;;;;;5.77;1.30;;;;;5.80;99916.00;;;;10535387;27;20286;-81
2024/04/16 01:13:12;;;;;;;4.70;1.60;;;;;5.90;99919.00;;;;10522896;27;20379;-81
2024/04/16 01:18:14;;;;;;;5.10;1.77;;;;;6.00;99903.00;;;;10505825;27;20265;-81
2024/04/16 01:23:16;;;;;;;8.27;1.50;;;;;5.90;99908.00;;;;10546748;27;20265;-82
2024/04/16 01:28:17;;;;;;;8.53;1.60;;;;;5.80;99908.00;;;;10515560;27;20629;-83
2024/04/16 01:33:19;;;;;;;5.50;1.90;;;;;5.70;99883.00;;;;10501733;28;20296;-84
2024/04/16 01:38:20;;;;;;;8.23;1.90;;;;;5.60;99893.00;;;;10497257;27;20296;-83
2024/04/16 01:43:22;;;;;;;8.50;2.37;;;;;5.60;99867.00;;;;10521192;27;20261;-85
2024/04/16 01:48:23;;;;;;;8.47;1.97;;;;;5.60;99891.00;;;;10481947;27;20308;-84
2024/04/16 01:53:25;;;;;;;6.67;1.80;;;;;5.70;99894.00;;;;10525838;27;20295;-83
2024/04/16 01:58:26;;;;;;;10.93;2.33;;;;;5.80;99898.00;;;;10562271;27;20320;-83
2024/04/16 02:03:28;;;;;;;8.87;1.90;;;;;5.80;99904.00;;;;10529447;27;20257;-85
2024/04/16 02:08:30;;;;;;;6.97;1.20;;;;;5.70;99922.00;;;;10512590;27;20257;-84
2024/04/16 02:13:32;;;;;;;9.77;1.60;;;;;5.50;99915.00;;;;10575470;27;20472;-84
2024/04/16 02:18:33;;;;;;;4.30;2.03;;;;;5.40;99918.00;;;;10554291;27;20352;-86
2024/04/16 02:23:35;;;;;;;9.70;1.60;;;;;5.20;99898.00;;;;10535590;27;20268;-85
2024/04/16 02:28:36;;;;;;;9.20;1.80;;;;;5.20;99895.00;;;;10549186;27;20253;-85
2024/04/16 02:33:38;;;;;;;8.00;1.90;;;;;5.10;99890.00;;;;10525280;27;20256;-84
2024/04/16 02:38:39;;;;;;;7.63;1.60;;;;;5.20;99897.00;;;;10555792;27;21105;-84
2024/04/16 02:43:41;;;;;;;4.37;1.30;;;;;5.20;99875.00;;;;10556047;27;20285;-83
2024/04/16 02:48:42;;;;;;;0.90;0.83;;;;;5.10;99876.00;;;;10513549;27;20325;-83
2024/04/16 02:53:44;;;;;;;2.93;1.30;;;;;5.00;99870.00;;;;10507212;27;20295;-82
2024/04/16 02:58:45;;;;;;;3.13;1.03;;;;;5.00;99882.00;;;;10518391;27;20278;-82
2024/04/16 03:03:47;;;;;;;2.57;1.10;;;;;5.00;99872.00;;;;10523515;27;20291;-82
2024/04/16 03:08:51;;;;;;;3.77;1.20;;;;;5.00;99881.00;;;;10522126;27;20257;-84
2024/04/16 03:13:52;;;;;;;6.77;2.20;;;;;5.10;99879.00;;;;10574693;27;20252;-86
2024/04/16 03:18:54;;;;;;;6.03;1.40;;;;;5.20;99866.00;;;;10528799;27;20284;-87
2024/04/16 03:23:55;;;;;;;6.23;1.70;;;;;5.20;99846.00;;;;10503206;27;20315;-86
2024/04/16 03:28:57;;;;;;;3.33;1.57;;;;;5.20;99853.00;;;;10495282;28;22470;-84
2024/04/16 03:33:58;;;;;;;5.17;1.87;;;;;5.20;99854.00;;;;10546888;27;20302;-86
2024/04/16 03:38:59;;;;;;;6.13;2.17;;;;;5.30;99839.00;;;;10535446;27;20594;-85
2024/04/16 03:44:01;;;;;;;15.10;2.57;;;;;5.40;99828.00;;;;10502010;27;20882;-84
2024/04/16 03:49:05;;;;;;;11.73;2.20;;;;;5.40;99827.00;;;;10534325;27;20406;-83
2024/04/16 03:54:07;;;;;;;8.53;3.00;;;;;5.50;99836.00;;;;10512909;27;20268;-83
2024/04/16 03:59:37;;;;;;;6.00;2.07;;;;;5.50;99821.00;;;;10525939;27;20302;-82
2024/04/16 04:04:39;;;;;;;5.80;2.60;;;;;5.50;99800.00;;;;10515076;27;20301;-83
2024/04/16 04:09:41;;;;;;;6.40;2.27;;;;;5.40;99799.00;;;;10524923;27;20282;-83
2024/04/16 04:14:42;;;;;;;10.27;2.60;;;;;5.50;99796.00;;;;10508881;27;20266;-82
2024/04/16 04:19:45;;;;;;;8.33;2.73;;;;;5.50;99790.00;;;;10522292;27;20353;-82
2024/04/16 04:24:46;;;;;;;8.70;2.53;;;;;5.60;99797.00;;;;10540109;27;20281;-82
2024/04/16 04:29:48;;;;;;;10.40;2.90;;;;;5.70;99790.00;;;;10543165;27;20952;-83
2024/04/16 04:34:49;;;;;;;11.47;2.60;;;;;5.80;99797.00;;;;10531619;27;20368;-86
2024/04/16 04:39:51;;;;;;;6.83;2.37;;;;;5.90;99808.00;;;;10537713;27;20265;-84
2024/04/16 04:44:52;;;;;;;10.00;2.77;;;;;6.00;99807.00;;;;10499555;27;20340;-83
2024/04/16 04:49:54;;;;;;;11.10;4.03;;;;;6.00;99803.00;;;;10503461;27;20353;-84
2024/04/16 04:54:55;;;;;;;7.80;2.77;;;;;6.00;99805.00;;;;10485326;27;20270;-82
2024/04/16 04:59:56;;;;;;;8.43;2.40;;;;;6.00;99808.00;;;;10529157;27;21039;-82
2024/04/16 05:04:58;;;;;;;6.53;2.00;;;;;6.10;99798.00;;;;10511655;27;20297;-83
2024/04/16 05:10:01;;;;;;;9.47;2.57;;;;;6.10;99810.00;;;;10530219;27;21083;-83
2024/04/16 05:15:04;;;;;;;7.37;2.20;;;;;6.10;99804.00;;;;10479655;27;20307;-81
2024/04/16 05:20:07;;;;;;;8.90;2.20;;;;;6.10;99818.00;;;;10514707;27;20411;-80
2024/04/16 05:25:08;;;;;;;6.83;1.73;;;;;6.10;99787.00;;;;10505763;27;20329;-80
2024/04/16 05:30:10;;;;;;;8.50;2.30;;;;;6.10;99820.00;;;;10513875;27;20364;-80
2024/04/16 05:35:11;;;;;;;4.57;2.63;;;;;6.10;99826.00;;;;10531624;27;20262;-80
2024/04/16 05:40:14;;;;;;;7.27;2.17;;;;;6.10;99823.00;;;;10513681;27;20292;-80
2024/04/16 05:45:16;;;;;;;4.57;1.93;;;;;6.10;99813.00;;;;10544043;27;20261;-78
2024/04/16 05:50:17;;;;;;;4.20;2.40;;;;;6.20;99825.00;;;;10516330;27;20283;-78
2024/04/16 05:55:20;;;;;;;4.37;2.10;;;;;6.40;99829.00;;;;10551087;27;20281;-78
2024/04/16 06:00:21;;;;;;;11.37;3.03;;;;;6.50;99818.00;;;;10479718;27;20273;-80
2024/04/16 06:05:23;;;;;;;9.37;2.10;;;;;7.00;99831.00;;;;10502373;27;20310;-80
2024/04/16 06:10:24;;;;;;;5.40;1.70;;;;;7.40;99842.00;;;;10475784;27;20370;-79
2024/04/16 06:15:26;;;;;;;8.60;2.63;;;;;7.20;99847.00;;;;10520479;27;20284;-79
2024/04/16 06:20:27;;;;;;;9.93;2.53;;;;;7.00;99858.00;;;;10522463;27;20261;-81
2024/04/16 06:25:28;;;;;;;8.93;2.83;;;;;6.90;99850.00;;;;10533593;27;20292;-79
2024/04/16 06:30:30;;;;;;;8.30;2.00;;;;;6.90;99853.00;;;;10534668;27;20734;-79
2024/04/16 06:35:31;;;;;;;9.13;2.47;;;;;7.00;99850.00;;;;10544849;27;20292;-78
2024/04/16 06:40:33;;;;;;;5.80;1.73;;;;;7.10;99864.00;;;;10554221;27;20860;-80
2024/04/16 06:45:34;;;;;;;10.10;2.40;;;;;7.10;99878.00;;;;10519560;27;20851;-79
2024/04/16 06:50:36;;;;;;;7.73;2.73;;;;;7.20;99887.00;;;;10524767;27;20265;-79
2024/04/16 06:55:37;;;;;;;11.80;2.70;;;;;7.20;99887.00;;;;10534463;27;20299;-78
2024/04/16 07:00:39;;;;;;;8.17;2.10;;;;;7.30;99905.00;;;;10545111;27;20371;-79
2024/04/16 07:05:40;;;;;;;6.63;2.23;;;;;7.40;99914.00;;;;10532790;27;20268;-81
2024/04/16 07:10:42;;;;;;;12.20;2.70;;;;;7.50;99910.00;;;;10518861;27;20311;-79
2024/04/16 07:15:43;;;;;;;8.20;2.20;;;;;7.50;99928.00;;;;10463907;27;20366;-81
2024/04/16 07:20:48;;;;;;;7.97;2.57;;;;;7.40;99928.00;;;;10560707;27;20273;-79
2024/04/16 07:25:50;;;;;;;11.07;1.97;;;;;7.40;99938.00;;;;10542584;27;20662;-76
2024/04/16 07:30:51;;;;;;;8.53;2.40;;;;;7.40;99929.00;;;;10494590;27;20269;-80
2024/04/16 07:36:08;;;;;;;9.23;2.60;;;;;7.70;99927.00;;;;10512075;27;20973;-80
2024/04/16 07:41:10;;;;;;;7.57;2.73;;;;;8.20;99916.00;;;;10532194;27;20311;-78
2024/04/16 07:46:11;;;;;;;11.83;2.60;;;;;8.30;99923.00;;;;10532681;27;20300;-79
2024/04/16 07:51:13;;;;;;;8.67;2.43;;;;;8.30;99914.00;;;;10494001;27;21040;-80
2024/04/16 07:56:15;;;;;;;11.77;2.50;;;;;8.20;99923.00;;;;10480632;27;20269;-80
2024/04/16 08:01:20;;;;;;;12.80;2.43;;;;;8.00;99936.00;;;;10522464;27;20273;-80
2024/04/16 08:06:21;;;;;;;6.63;2.40;;;;;8.20;99934.00;;;;10497356;27;20262;-80
2024/04/16 08:11:23;;;;;;;8.13;2.73;;;;;8.60;99949.00;;;;10479561;27;20386;-79
2024/04/16 08:16:25;;;;;;;10.93;2.20;;;;;8.90;99941.00;;;;10517493;28;20300;-79
2024/04/16 08:21:26;;;;;;;12.83;2.90;;;;;9.20;99946.00;;;;10532539;27;20284;-79
2024/04/16 08:26:28;;;;;;;6.57;1.93;;;;;8.90;99959.00;;;;10558211;27;20386;-80
2024/04/16 08:31:29;;;;;;;11.87;1.90;;;;;8.80;99981.00;;;;10522231;27;20404;-79
2024/04/16 08:36:31;;;;;;;7.93;2.07;;;;;8.60;99987.00;;;;10518323;27;20299;-76
2024/04/16 08:41:35;;;;;;;8.93;2.37;;;;;8.60;100005.00;;;;10485323;28;20252;-77
2024/04/16 08:46:37;;;;;;;12.03;3.70;;;;;8.40;100013.00;;;;10522766;27;20308;-78
2024/04/16 08:51:40;;;;;;;7.67;2.20;;;;;8.10;100027.00;;;;10509840;27;21092;-76
2024/04/16 08:56:43;;;;;;;8.37;2.07;;;;;8.10;100032.00;;;;10558422;27;20732;-76
2024/04/16 09:01:49;;;;;;;9.53;2.33;;;;;8.20;100034.00;;;;10528666;27;20261;-77
2024/04/16 09:06:51;;;;;;;9.03;3.07;;;;;8.20;100049.00;;;;10524832;27;20305;-76
2024/04/16 09:11:52;;;;;;;13.63;3.00;;;;;8.30;100059.00;;;;10533305;27;20265;-83
2024/04/16 09:16:55;;;;;;;8.07;2.67;;;;;8.80;100063.00;;;;10533721;27;20265;-83
2024/04/16 09:21:59;;;;;;;9.80;2.83;;;;;9.40;100021.00;;;;10559903;27;20277;-82
2024/04/16 09:27:08;;;;;;;14.53;3.53;;;;;9.50;100059.00;;;;10518826;27;20276;-82
2024/04/16 09:32:10;;;;;;;9.37;3.33;;;;;9.40;100074.00;;;;10555938;27;22694;-82
2024/04/16 09:37:18;;;;;;;5.97;2.43;;;;;10.90;100038.00;;;;10505831;27;20273;-82
2024/04/16 09:42:24;;;;;;;4.43;1.70;;;;;12.10;100052.00;;;;10486595;27;20269;-81
2024/04/16 09:47:26;;;;;;;4.17;1.00;;;;;11.80;100066.00;;;;10522787;27;21127;-81
2024/04/16 09:52:29;;;;;;;6.00;1.23;;;;;12.10;100063.00;;;;10560368;27;20280;-81
2024/04/16 09:57:31;;;;;;;6.37;1.17;;;;;11.50;100073.00;;;;10502213;27;21538;-81
2024/04/16 10:02:33;;;;;;;5.47;1.17;;;;;10.00;100086.00;;;;10547164;27;20282;-82
2024/04/16 10:07:35;;;;;;;4.33;1.20;;;;;12.20;100084.00;;;;10531562;27;20266;-82
2024/04/16 10:12:40;;;;;;;4.70;1.27;;;;;13.30;100092.00;;;;10548510;27;20265;-82
2024/04/16 10:17:53;;;;;;;3.60;1.33;;;;;12.50;100085.00;;;;10468686;28;20265;-81
2024/04/16 10:23:01;;;;;;;5.67;1.57;;;;;13.00;100091.00;;;;10546987;27;20791;-80
2024/04/16 10:28:04;;;;;;;3.17;1.50;;;;;13.30;100087.00;;;;10553353;27;20321;-79
2024/04/16 10:33:10;;;;;;;4.33;1.47;;;;;12.60;100077.00;;;;10495539;27;20329;-79
2024/04/16 10:38:12;;;;;;;6.07;1.50;;;;;13.00;100104.00;;;;10550974;27;20375;-79
2024/04/16 10:43:21;;;;;;;4.47;1.63;;;;;13.00;100093.00;;;;10519861;27;20299;-79
2024/04/16 10:48:23;;;;;;;3.73;1.30;;;;;12.60;100101.00;;;;10519902;27;20303;-79
2024/04/16 10:53:24;;;;;;;3.47;1.37;;;;;11.60;100100.00;;;;10527526;27;20364;-79
2024/04/16 10:58:26;;;;;;;4.90;1.43;;;;;11.40;100110.00;;;;10546243;27;20736;-78
2024/04/16 11:03:28;;;;;;;3.57;1.90;;;;;11.30;100120.00;;;;10529767;27;20368;-80
2024/04/16 11:08:31;;;;;;;5.77;1.60;;;;;11.60;100112.00;;;;10487664;27;20361;-79
2024/04/16 11:13:33;;;;;;;4.33;2.10;;;;;11.90;100095.00;;;;10502327;27;20972;-80
2024/04/16 11:18:35;;;;;;;2.90;1.60;;;;;12.10;100115.00;;;;10543925;27;20292;-79
2024/04/16 11:23:36;;;;;;;1.70;0.87;;;;;10.70;100139.00;;;;10505597;27;20295;-81
2024/04/16 11:28:42;;;;;;;3.77;1.40;;;;;11.00;100139.00;;;;10494891;28;20605;-80
2024/04/16 11:33:44;;;;;;;3.67;1.27;;;;;12.00;100138.00;;;;10516286;27;20890;-79
2024/04/16 11:38:47;;;;;;;3.67;1.60;;;;;13.60;100154.00;;;;10512196;27;20257;-79
2024/04/16 11:43:49;;;;;;;2.60;1.27;;;;;12.80;100141.00;;;;10535112;27;20305;-77
2024/04/16 11:48:51;;;;;;;4.83;1.47;;;;;13.00;100151.00;;;;10535832;27;20274;-78
2024/04/16 11:53:53;;;;;;;3.50;1.90;;;;;11.70;100166.00;;;;10497488;27;20266;-78
2024/04/16 11:58:54;;;;;;;5.97;2.13;;;;;11.00;100161.00;;;;10543466;27;21151;-78
2024/04/16 12:03:56;;;;;;;10.03;3.40;;;;;12.40;100162.00;;;;10520522;27;20269;-79
2024/04/16 12:08:58;;;;;;;5.47;2.00;;;;;11.80;100161.00;;;;10535515;27;20260;-79
2024/04/16 12:13:59;;;;;;;2.70;1.97;;;;;11.10;100161.00;;;;10558727;27;20744;-78
2024/04/16 12:19:02;;;;;;;2.33;0.87;;;;;12.30;100168.00;;;;10545205;27;20324;-80
2024/04/16 12:24:04;;;;;;;2.83;0.97;;;;;13.50;100163.00;;;;10506233;27;21129;-79
2024/04/16 12:29:05;;;;;;;4.20;1.03;;;;;12.90;100162.00;;;;10553404;27;20265;-79
2024/04/16 12:34:07;;;;;;;6.10;0.80;;;;;12.60;100189.00;;;;10479086;27;20284;-78
2024/04/16 12:39:11;;;;;;;3.63;0.97;;;;;12.00;100203.00;;;;10532829;27;20261;-78
2024/04/16 12:44:12;;;;;;;3.83;1.00;;;;;10.90;100220.00;;;;10549659;27;20369;-79
2024/04/16 12:49:14;;;;;;;3.93;1.17;;;;;10.50;100195.00;;;;10489922;27;20265;-80
2024/04/16 12:54:15;;;;;;;2.50;0.97;;;;;9.70;100216.00;;;;10530919;27;20285;-79
2024/04/16 12:59:17;;;;;;;7.40;1.57;;;;;9.70;100219.00;;;;10501476;27;20276;-80
2024/04/16 13:04:18;;;;;;;6.20;2.83;;;;;10.00;100220.00;;;;10531593;27;20273;-80
2024/04/16 13:09:19;;;;;;;6.83;1.87;;;;;9.30;100228.00;;;;10486696;27;20925;-77
2024/04/16 13:14:21;;;;;;;13.87;2.03;;;;;8.80;100220.00;;;;10514507;27;21065;-78
2024/04/16 13:19:23;;;;;;;3.53;2.43;;;;;8.70;100236.00;;;;10554453;27;20371;-79
2024/04/16 13:24:24;;;;;;;7.03;1.87;;;;;8.70;100245.00;;;;10549960;27;20257;-79
2024/04/16 13:29:26;;;;;;;5.00;1.33;;;;;8.90;100246.00;;;;10527296;27;20289;-79
2024/04/16 13:34:29;;;;;;;4.17;1.13;;;;;9.30;100233.00;;;;10522505;27;20328;-78
2024/04/16 13:39:31;;;;;;;6.10;1.30;;;;;9.80;100235.00;;;;10494942;27;20273;-79
2024/04/16 13:44:33;;;;;;;5.80;1.60;;;;;9.80;100232.00;;;;10512025;27;20281;-78
2024/04/16 13:49:34;;;;;;;4.03;1.50;;;;;10.20;100224.00;;;;10494216;27;20836;-80
2024/04/16 13:54:36;;;;;;;3.70;1.17;;;;;9.80;100234.00;;;;10500558;27;20265;-82
2024/04/16 13:59:37;;;;;;;3.47;0.80;;;;;10.20;100217.00;;;;10528453;27;20345;-81
2024/04/16 14:04:39;;;;;;;2.93;0.83;;;;;10.90;100240.00;;;;10505767;27;20379;-81
2024/04/16 14:09:40;;;;;;;4.37;0.90;;;;;11.40;100239.00;;;;10523707;27;20292;-81
2024/04/16 14:14:42;;;;;;;5.53;1.10;;;;;12.20;100234.00;;;;10519493;27;20265;-81
2024/04/16 14:19:43;;;;;;;4.83;0.83;;;;;12.80;100238.00;;;;10543686;27;20270;-80
2024/04/16 14:24:45;;;;;;;1.53;0.67;;;;;12.80;100218.00;;;;10533139;27;20293;-81
2024/04/16 14:29:46;;;;;;;5.43;0.70;;;;;12.50;100239.00;;;;10525622;27;20262;-81
2024/04/16 14:34:48;;;;;;;2.00;0.30;;;;;11.90;100248.00;;;;10515580;27;20391;-81
2024/04/16 14:39:49;;;;;;;4.10;0.80;;;;;12.00;100235.00;;;;10496360;27;20726;-80
2024/04/16 14:44:51;;;;;;;3.33;1.10;;;;;11.80;100227.00;;;;10554287;27;20273;-82
2024/04/16 14:49:52;;;;;;;2.40;0.87;;;;;12.30;100225.00;;;;10547831;27;20935;-81
2024/04/16 14:54:54;;;;;;;7.03;1.30;;;;;11.50;100250.00;;;;10547920;27;20936;-79
2024/04/16 14:59:55;;;;;;;4.90;1.00;;;;;10.80;100259.00;;;;10496950;27;20269;-81
2024/04/16 15:04:57;;;;;;;3.50;0.70;;;;;10.00;100257.00;;;;10527877;27;20300;-81
2024/04/16 15:09:58;;;;;;;5.13;1.37;;;;;9.40;100274.00;;;;10548296;27;20269;-81
2024/04/16 15:14:59;;;;;;;3.10;1.10;;;;;9.80;100268.00;;;;10473819;27;20378;-81
2024/04/16 15:20:02;;;;;;;5.53;1.23;;;;;10.10;100271.00;;;;10555309;27;20265;-81
2024/04/16 15:25:04;;;;;;;2.87;1.13;;;;;9.70;100257.00;;;;10535740;27;20380;-80
2024/04/16 15:30:06;;;;;;;3.63;1.07;;;;;9.50;100270.00;;;;10476976;27;20301;-81
2024/04/16 15:35:08;;;;;;;3.80;1.10;;;;;9.50;100274.00;;;;10532162;27;20277;-81
2024/04/16 15:40:09;;;;;;;3.87;1.00;;;;;9.30;100275.00;;;;10529780;27;20266;-81
2024/04/16 15:45:24;;;;;;;3.57;1.57;;;;;9.30;100258.00;;;;10532746;27;20276;-81
2024/04/16 15:50:27;;;;;;;3.83;1.27;;;;;9.60;100273.00;;;;10539232;27;20324;-81
2024/04/16 15:55:28;;;;;;;7.57;1.30;;;;;10.10;100269.00;;;;10533525;27;20256;-81
2024/04/16 16:00:30;;;;;;;3.27;1.27;;;;;10.80;100262.00;;;;10522707;27;20264;-81
2024/04/16 16:05:31;;;;;;;4.10;1.30;;;;;11.10;100273.00;;;;10570595;27;20942;-81
2024/04/16 16:10:33;;;;;;;2.67;1.13;;;;;10.70;100292.00;;;;10536721;27;20260;-80
2024/04/16 16:15:35;;;;;;;1.60;1.17;;;;;10.20;100292.00;;;;10550199;27;20312;-79
2024/04/16 16:20:36;;;;;;;1.37;0.93;;;;;10.00;100304.00;;;;10537215;27;20265;-79
2024/04/16 16:25:37;;;;;;;3.20;0.90;;;;;9.80;100307.00;;;;10566215;27;21056;-79
2024/04/16 16:30:40;;;;;;;1.93;0.50;;;;;9.70;100297.00;;;;10521474;27;20350;-79
2024/04/16 16:35:41;;;;;;;0.97;0.57;;;;;9.00;100318.00;;;;10556537;27;21149;-80
2024/04/16 16:40:42;;;;;;;2.50;0.90;;;;;8.40;100316.00;;;;10522343;27;20291;-79
2024/04/16 16:45:44;;;;;;;1.57;0.90;;;;;8.40;100336.00;;;;10539011;27;20345;-78
2024/04/16 16:50:46;;;;;;;4.63;1.13;;;;;8.50;100343.00;;;;10496033;27;20288;-79
2024/04/16 16:55:51;;;;;;;1.70;1.10;;;;;8.20;100365.00;;;;10508812;27;20270;-79
2024/04/16 17:00:52;;;;;;;3.63;1.30;;;;;8.10;100372.00;;;;10565204;27;20296;-79
2024/04/16 17:05:54;;;;;;;2.93;1.17;;;;;8.40;100384.00;;;;10507388;27;20649;-79
2024/04/16 17:10:56;;;;;;;3.10;1.53;;;;;8.20;100395.00;;;;10547505;27;20321;-79
2024/04/16 17:15:58;;;;;;;5.07;1.47;;;;;8.10;100401.00;;;;10528295;27;20265;-79
2024/04/16 17:21:01;;;;;;;5.70;1.40;;;;;7.90;100405.00;;;;10520275;27;20841;-79
2024/04/16 17:26:03;;;;;;;4.20;1.50;;;;;7.80;100402.00;;;;10535041;27;20296;-79
2024/04/16 17:31:04;;;;;;;2.27;1.13;;;;;7.80;100407.00;;;;10544951;27;20309;-78
2024/04/16 17:36:06;;;;;;;7.20;1.73;;;;;7.80;100411.00;;;;10538475;27;20676;-78
2024/04/16 17:41:08;;;;;;;8.43;1.90;;;;;7.70;100415.00;;;;10529858;27;20265;-79
2024/04/16 17:46:09;;;;;;;2.30;1.30;;;;;7.60;100420.00;;;;10540728;27;20270;-80
2024/04/16 17:51:11;;;;;;;2.73;1.40;;;;;7.60;100418.00;;;;10523211;27;21167;-78
2024/04/16 17:56:14;;;;;;;5.47;1.63;;;;;7.50;100434.00;;;;10501496;27;20392;-79
2024/04/16 18:01:15;;;;;;;3.83;2.00;;;;;7.30;100433.00;;;;10547041;27;20966;-78
2024/04/16 18:06:17;;;;;;;6.00;1.90;;;;;7.10;100437.00;;;;10521396;27;20359;-78
2024/04/16 18:11:18;;;;;;;3.63;2.37;;;;;7.10;100448.00;;;;10533373;27;20617;-78
2024/04/16 18:16:20;;;;;;;6.67;2.20;;;;;7.10;100447.00;;;;10530257;27;20266;-78
2024/04/16 18:21:22;;;;;;;4.37;2.40;;;;;7.10;100455.00;;;;10534977;27;21479;-79
2024/04/16 18:26:24;;;;;;;8.43;2.90;;;;;7.10;100450.00;;;;10529767;27;20280;-77
2024/04/16 18:31:26;;;;;;;5.67;2.47;;;;;7.00;100465.00;;;;10563656;27;20886;-80
2024/04/16 18:36:28;;;;;;;5.23;2.87;;;;;7.00;100464.00;;;;10523230;27;20319;-80
2024/04/16 18:41:29;;;;;;;7.17;2.70;;;;;7.00;100469.00;;;;10500015;27;22082;-81
2024/04/16 18:46:31;;;;;;;3.13;2.40;;;;;7.00;100485.00;;;;10522006;27;20264;-79
2024/04/16 18:51:32;;;;;;;5.23;2.10;;;;;7.00;100481.00;;;;10538678;27;20274;-79
2024/04/16 18:56:34;;;;;;;8.87;3.10;;;;;7.00;100487.00;;;;10531180;27;20292;-79
2024/04/16 19:01:35;;;;;;;5.23;2.73;;;;;7.00;100490.00;;;;10511633;27;20365;-78
2024/04/16 19:06:38;;;;;;;9.40;3.60;;;;;7.00;100502.00;;;;10556424;27;20284;-80
2024/04/16 19:11:40;;;;;;;10.17;3.60;;;;;6.90;100508.00;;;;10532914;27;20276;-79
2024/04/16 19:16:41;;;;;;;7.60;3.40;;;;;6.90;100513.00;;;;10508810;28;20782;-79
2024/04/16 19:21:43;;;;;;;12.23;3.90;;;;;6.90;100525.00;;;;10537459;27;20270;-80
2024/04/16 19:26:44;;;;;;;10.80;3.97;;;;;6.80;100527.00;;;;10512603;27;20268;-80
2024/04/16 19:31:46;;;;;;;11.70;4.20;;;;;6.70;100529.00;;;;10523481;27;20618;-80
2024/04/16 19:36:48;;;;;;;12.03;4.03;;;;;6.70;100538.00;;;;10568085;27;20294;-80
2024/04/16 19:41:50;;;;;;;16.90;4.93;;;;;6.70;100547.00;;;;10493481;27;20295;-82
2024/04/16 19:46:51;;;;;;;16.17;4.20;;;;;6.60;100554.00;;;;10491252;27;20288;-83
2024/04/16 19:51:53;;;;;;;14.07;4.10;;;;;6.50;100562.00;;;;10546781;27;20741;-82
2024/04/16 19:56:55;;;;;;;11.80;4.77;;;;;6.50;100575.00;;;;10509216;27;21115;-82
2024/04/16 20:01:56;;;;;;;15.07;4.43;;;;;6.50;100567.00;;;;10480119;28;20308;-85
2024/04/16 20:06:57;;;;;;;16.80;4.80;;;;;6.50;100577.00;;;;10524012;27;20260;-83
2024/04/16 20:11:59;;;;;;;15.67;4.73;;;;;6.40;100576.00;;;;10494872;27;20296;-82
2024/04/16 20:17:01;;;;;;;17.70;5.73;;;;;6.40;100589.00;;;;10536779;27;20354;-82
2024/04/16 20:22:03;;;;;;;17.97;6.20;;;;;6.30;100587.00;;;;10528921;27;20260;-82
2024/04/16 20:27:05;;;;;;;10.30;4.60;;;;;6.30;100606.00;;;;10559360;27;20914;-81
2024/04/16 20:32:06;;;;;;;18.87;5.00;;;;;6.20;100598.00;;;;10554833;27;20982;-82
2024/04/16 20:37:08;;;;;;;12.27;4.77;;;;;6.20;100609.00;;;;10536070;27;20604;-82
2024/04/16 20:42:10;;;;;;;18.73;5.03;;;;;6.10;100600.00;;;;10486394;27;20304;-82
2024/04/16 20:47:11;;;;;;;12.53;4.83;;;;;6.10;100609.00;;;;10519700;27;20269;-83
2024/04/16 20:52:13;;;;;;;17.37;4.57;;;;;6.10;100617.00;;;;10506953;27;20287;-78
2024/04/16 20:57:14;;;;;;;14.13;4.37;;;;;6.00;100621.00;;;;10525709;27;22615;-77
2024/04/16 21:02:16;;;;;;;12.13;4.87;;;;;6.00;100630.00;;;;10492775;27;20261;-78
2024/04/16 21:07:17;;;;;;;29.40;5.73;;;;;5.90;100631.00;;;;10523660;27;20264;-77
2024/04/16 21:12:19;;;;;;;20.00;5.00;;;;;5.90;100633.00;;;;10519060;27;20256;-77
2024/04/16 21:17:21;;;;;;;18.10;4.60;;;;;5.80;100634.00;;;;10562557;27;21080;-77
2024/04/16 21:22:22;;;;;;;18.17;4.30;;;;;5.80;100642.00;;;;10558928;27;20305;-79
2024/04/16 21:27:24;;;;;;;24.50;4.53;;;;;5.80;100654.00;;;;10527152;27;20284;-77
2024/04/16 21:32:25;;;;;;;17.57;4.30;;;;;5.70;100656.00;;;;10533400;27;20268;-77
2024/04/16 21:37:27;;;;;;;19.30;4.93;;;;;5.70;100667.00;;;;10548370;27;20274;-77
2024/04/16 21:42:29;;;;;;;18.23;4.50;;;;;5.60;100670.00;;;;10565350;27;20265;-78
2024/04/16 21:47:30;;;;;;;22.80;4.60;;;;;5.50;100677.00;;;;10533199;27;20308;-77
2024/04/16 21:52:32;;;;;;;17.07;4.57;;;;;5.50;100683.00;;;;10496953;27;20264;-77
2024/04/16 21:57:34;;;;;;;20.67;5.30;;;;;5.40;100682.00;;;;10546955;27;20299;-78
2024/04/16 22:02:35;;;;;;;16.33;4.57;;;;;5.30;100683.00;;;;10550912;27;20391;-80
2024/04/16 22:07:37;;;;;;;23.93;5.43;;;;;5.20;100684.00;;;;10510634;27;20273;-80
2024/04/16 22:12:38;;;;;;;14.63;4.27;;;;;5.20;100695.00;;;;10493806;27;20281;-80
2024/04/16 22:17:40;;;;;;;18.73;5.30;;;;;5.10;100696.00;;;;10495742;27;20283;-80
2024/04/16 22:22:41;;;;;;;11.80;4.30;;;;;5.00;100698.00;;;;10525726;27;20350;-79
2024/04/16 22:27:43;;;;;;;19.87;4.97;;;;;4.90;100702.00;;;;10532920;27;20272;-79
2024/04/16 22:32:45;;;;;;;18.17;4.57;;;;;4.80;100713.00;;;;10531915;27;20325;-79
2024/04/16 22:37:47;;;;;;;16.93;4.43;;;;;4.60;100718.00;;;;10509225;27;20269;-80
2024/04/16 22:42:48;;;;;;;24.83;4.93;;;;;4.50;100724.00;;;;10505038;27;20321;-80
2024/04/16 22:47:49;;;;;;;18.33;5.40;;;;;4.50;100728.00;;;;10547463;27;20265;-80
2024/04/16 22:52:51;;;;;;;19.40;5.60;;;;;4.40;100725.00;;;;10511922;27;20281;-81
2024/04/16 22:57:52;;;;;;;15.30;5.57;;;;;4.30;100721.00;;;;10535585;27;20319;-80
2024/04/16 23:02:54;;;;;;;12.67;4.50;;;;;4.30;100718.00;;;;10542945;27;20293;-80
2024/04/16 23:07:55;;;;;;;14.63;4.53;;;;;4.20;100730.00;;;;10491169;27;20996;-80
2024/04/16 23:12:57;;;;;;;18.60;4.03;;;;;4.10;100723.00;;;;10502402;27;20296;-80
2024/04/16 23:18:00;;;;;;;19.70;4.63;;;;;4.10;100728.00;;;;10542992;27;20322;-81
2024/04/16 23:23:04;;;;;;;12.63;4.77;;;;;4.10;100725.00;;;;10523613;27;20295;-80
2024/04/16 23:28:06;;;;;;;16.70;4.00;;;;;4.10;100727.00;;;;10525974;27;20265;-80
2024/04/16 23:33:07;;;;;;;13.13;4.03;;;;;4.10;100725.00;;;;10503051;27;21133;-80
2024/04/16 23:38:09;;;;;;;16.53;3.77;;;;;4.10;100729.00;;;;10527356;27;20284;-79
2024/04/16 23:43:10;;;;;;;17.80;5.37;;;;;4.00;100737.00;;;;10535169;27;20369;-80
2024/04/16 23:48:12;;;;;;;20.47;4.77;;;;;4.00;100727.00;;;;10533499;27;20265;-80
2024/04/16 23:53:13;;;;;;;19.47;4.70;;;;;3.90;100713.00;;;;10549927;27;20288;-80
2024/04/16 23:58:15;;;;;;;25.43;5.27;;;;;3.90;100716.00;;;;10567687;27;20304;-80
